sensor_id;sensor_type;location;lat;lon;timestamp;P1;durP1;ratioP1;P2;durP2;ratioP2
12038;SDS011;6080;48.818;9.526;2023-07-13T03:01:58;35.80;;;33.83;;
12038;SDS011;6080;48.818;9.526;2023-07-13T03:04:25;38.07;;;36.10;;
12038;SDS011;6080;48.818;9.526;2023-07-13T03:06:51;45.37;;;43.03;;
12038;SDS011;6080;48.818;9.526;2023-07-13T03:09:17;69.17;;;65.53;;
12038;SDS011;6080;48.818;9.526;2023-07-13T03:11:42;74.00;;;70.20;;
12038;SDS011;6080;48.818;9.526;2023-07-13T03:14:08;63.30;;;60.07;;
12038;SDS011;6080;48.818;9.526;2023-07-13T03:16:34;61.87;;;58.63;;
12038;SDS011;6080;48.818;9.526;2023-07-13T03:19:00;65.90;;;62.50;;
12038;SDS011;6080;48.818;9.526;2023-07-13T03:21:25;58.73;;;55.60;;
12038;SDS011;6080;48.818;9.526;2023-07-13T03:23:51;47.73;;;45.33;;
12038;SDS011;6080;48.818;9.526;2023-07-13T03:26:18;41.23;;;39.00;;
12038;SDS011;6080;48.818;9.526;2023-07-13T03:28:45;37.57;;;35.73;;
12038;SDS011;6080;48.818;9.526;2023-07-13T03:31:13;40.90;;;38.80;;
12038;SDS011;6080;48.818;9.526;2023-07-13T03:33:44;35.90;;;34.00;;
12038;SDS011;6080;48.818;9.526;2023-07-13T03:36:13;23.47;;;22.17;;
12038;SDS011;6080;48.818;9.526;2023-07-13T03:38:45;19.87;;;18.77;;
12038;SDS011;6080;48.818;9.526;2023-07-13T03:41:12;14.53;;;13.80;;
12038;SDS011;6080;48.818;9.526;2023-07-13T03:43:37;14.20;;;13.37;;
12038;SDS011;6080;48.818;9.526;2023-07-13T03:46:03;15.20;;;14.10;;
12038;SDS011;6080;48.818;9.526;2023-07-13T03:48:29;17.23;;;16.03;;
12038;SDS011;6080;48.818;9.526;2023-07-13T03:50:54;15.63;;;14.90;;
12038;SDS011;6080;48.818;9.526;2023-07-13T03:53:20;12.77;;;12.17;;
12038;SDS011;6080;48.818;9.526;2023-07-13T03:55:46;17.63;;;16.43;;
12038;SDS011;6080;48.818;9.526;2023-07-13T03:58:45;16.63;;;15.77;;
12038;SDS011;6080;48.818;9.526;2023-07-13T04:01:05;12.83;;;11.87;;
12038;SDS011;6080;48.818;9.526;2023-07-13T04:03:33;14.70;;;13.90;;
12038;SDS011;6080;48.818;9.526;2023-07-13T04:06:00;14.67;;;13.87;;
12038;SDS011;6080;48.818;9.526;2023-07-13T04:08:28;18.87;;;17.87;;
12038;SDS011;6080;48.818;9.526;2023-07-13T04:10:55;26.50;;;24.93;;
12038;SDS011;6080;48.818;9.526;2023-07-13T04:13:21;27.73;;;26.27;;
12038;SDS011;6080;48.818;9.526;2023-07-13T04:15:47;25.67;;;24.07;;
12038;SDS011;6080;48.818;9.526;2023-07-13T04:18:13;21.97;;;20.30;;
12038;SDS011;6080;48.818;9.526;2023-07-13T04:20:39;13.93;;;13.13;;
12038;SDS011;6080;48.818;9.526;2023-07-13T04:23:05;9.43;;;8.83;;
12038;SDS011;6080;48.818;9.526;2023-07-13T04:25:30;10.37;;;9.77;;
12038;SDS011;6080;48.818;9.526;2023-07-13T04:27:56;36.43;;;34.40;;
12038;SDS011;6080;48.818;9.526;2023-07-13T04:30:22;64.87;;;61.43;;
12038;SDS011;6080;48.818;9.526;2023-07-13T04:32:50;62.77;;;59.23;;
12038;SDS011;6080;48.818;9.526;2023-07-13T04:35:17;38.63;;;36.50;;
12038;SDS011;6080;48.818;9.526;2023-07-13T04:37:50;90.63;;;85.60;;
12038;SDS011;6080;48.818;9.526;2023-07-13T04:40:16;90.77;;;85.87;;
12038;SDS011;6080;48.818;9.526;2023-07-13T04:42:43;84.90;;;80.37;;
12038;SDS011;6080;48.818;9.526;2023-07-13T04:45:10;151.10;;;143.53;;
12038;SDS011;6080;48.818;9.526;2023-07-13T04:47:36;212.00;;;201.17;;
12038;SDS011;6080;48.818;9.526;2023-07-13T04:50:02;230.77;;;218.40;;
12038;SDS011;6080;48.818;9.526;2023-07-13T04:52:28;264.20;;;250.50;;
12038;SDS011;6080;48.818;9.526;2023-07-13T04:54:53;263.40;;;249.90;;
12038;SDS011;6080;48.818;9.526;2023-07-13T04:57:19;265.37;;;251.43;;
12038;SDS011;6080;48.818;9.526;2023-07-13T04:59:45;276.87;;;262.17;;
12038;SDS011;6080;48.818;9.526;2023-07-13T05:02:11;288.00;;;273.00;;
12038;SDS011;6080;48.818;9.526;2023-07-13T05:04:37;289.03;;;273.97;;
12038;SDS011;6080;48.818;9.526;2023-07-13T05:07:02;278.93;;;264.63;;
12038;SDS011;6080;48.818;9.526;2023-07-13T05:09:28;284.70;;;269.80;;
12038;SDS011;6080;48.818;9.526;2023-07-13T05:11:54;258.10;;;244.77;;
12038;SDS011;6080;48.818;9.526;2023-07-13T05:14:20;301.97;;;285.53;;
12038;SDS011;6080;48.818;9.526;2023-07-13T05:16:45;201.20;;;190.53;;
12038;SDS011;6080;48.818;9.526;2023-07-13T05:19:11;152.97;;;145.00;;
12038;SDS011;6080;48.818;9.526;2023-07-13T05:21:37;132.17;;;125.50;;
12038;SDS011;6080;48.818;9.526;2023-07-13T05:24:03;146.40;;;138.60;;
12038;SDS011;6080;48.818;9.526;2023-07-13T05:26:29;134.90;;;127.82;;
12038;SDS011;6080;48.818;9.526;2023-07-13T05:28:54;114.47;;;108.45;;
12038;SDS011;6080;48.818;9.526;2023-07-13T05:31:20;112.05;;;106.50;;
12038;SDS011;6080;48.818;9.526;2023-07-13T05:33:46;62.50;;;59.38;;
12038;SDS011;6080;48.818;9.526;2023-07-13T05:36:12;19.48;;;18.30;;
12038;SDS011;6080;48.818;9.526;2023-07-13T05:38:37;18.20;;;16.60;;
12038;SDS011;6080;48.818;9.526;2023-07-13T05:41:03;46.33;;;43.65;;
12038;SDS011;6080;48.818;9.526;2023-07-13T05:43:29;60.35;;;56.78;;
12038;SDS011;6080;48.818;9.526;2023-07-13T05:45:55;51.97;;;49.08;;
12038;SDS011;6080;48.818;9.526;2023-07-13T05:48:22;19.40;;;17.58;;
12038;SDS011;6080;48.818;9.526;2023-07-13T05:50:48;16.55;;;15.65;;
12038;SDS011;6080;48.818;9.526;2023-07-13T05:53:14;17.30;;;16.10;;
12038;SDS011;6080;48.818;9.526;2023-07-13T05:55:41;23.33;;;22.05;;
12038;SDS011;6080;48.818;9.526;2023-07-13T05:58:13;19.73;;;18.55;;
12038;SDS011;6080;48.818;9.526;2023-07-13T06:00:39;13.05;;;12.20;;
12038;SDS011;6080;48.818;9.526;2023-07-13T06:03:05;12.30;;;11.32;;
12038;SDS011;6080;48.818;9.526;2023-07-13T06:05:32;16.35;;;15.27;;
12038;SDS011;6080;48.818;9.526;2023-07-13T06:07:59;15.73;;;14.82;;
12038;SDS011;6080;48.818;9.526;2023-07-13T06:10:25;13.82;;;12.82;;
12038;SDS011;6080;48.818;9.526;2023-07-13T06:12:51;14.75;;;13.50;;
12038;SDS011;6080;48.818;9.526;2023-07-13T06:15:17;38.95;;;36.88;;
12038;SDS011;6080;48.818;9.526;2023-07-13T06:17:43;16.60;;;15.23;;
12038;SDS011;6080;48.818;9.526;2023-07-13T06:20:09;31.25;;;29.55;;
12038;SDS011;6080;48.818;9.526;2023-07-13T06:22:35;28.63;;;27.02;;
12038;SDS011;6080;48.818;9.526;2023-07-13T06:25:00;26.95;;;25.20;;
12038;SDS011;6080;48.818;9.526;2023-07-13T06:27:26;32.63;;;30.83;;
12038;SDS011;6080;48.818;9.526;2023-07-13T06:29:52;20.33;;;18.98;;
12038;SDS011;6080;48.818;9.526;2023-07-13T06:32:18;24.80;;;23.05;;
12038;SDS011;6080;48.818;9.526;2023-07-13T06:34:43;21.77;;;20.40;;
12038;SDS011;6080;48.818;9.526;2023-07-13T06:37:09;136.23;;;129.40;;
12038;SDS011;6080;48.818;9.526;2023-07-13T06:39:35;9.65;;;8.85;;
12038;SDS011;6080;48.818;9.526;2023-07-13T06:42:01;6.93;;;4.78;;
12038;SDS011;6080;48.818;9.526;2023-07-13T06:44:27;6.85;;;6.35;;
12038;SDS011;6080;48.818;9.526;2023-07-13T06:46:53;7.22;;;6.13;;
12038;SDS011;6080;48.818;9.526;2023-07-13T06:49:18;6.70;;;6.20;;
12038;SDS011;6080;48.818;9.526;2023-07-13T06:51:44;8.77;;;8.15;;
12038;SDS011;6080;48.818;9.526;2023-07-13T06:54:10;6.88;;;6.55;;
12038;SDS011;6080;48.818;9.526;2023-07-13T06:56:35;11.50;;;6.22;;
12038;SDS011;6080;48.818;9.526;2023-07-13T06:59:01;6.80;;;6.40;;
12038;SDS011;6080;48.818;9.526;2023-07-13T07:01:27;6.80;;;6.10;;
12038;SDS011;6080;48.818;9.526;2023-07-13T07:03:53;8.32;;;7.82;;
12038;SDS011;6080;48.818;9.526;2023-07-13T07:06:20;23.58;;;22.45;;
12038;SDS011;6080;48.818;9.526;2023-07-13T07:08:50;18.00;;;16.88;;
12038;SDS011;6080;48.818;9.526;2023-07-13T07:11:18;11.50;;;9.15;;
12038;SDS011;6080;48.818;9.526;2023-07-13T07:13:47;4.60;;;4.30;;
12038;SDS011;6080;48.818;9.526;2023-07-13T07:16:14;5.53;;;5.13;;
12038;SDS011;6080;48.818;9.526;2023-07-13T07:18:40;4.53;;;4.13;;
12038;SDS011;6080;48.818;9.526;2023-07-13T07:21:06;4.07;;;3.53;;
12038;SDS011;6080;48.818;9.526;2023-07-13T07:23:31;3.67;;;3.42;;
12038;SDS011;6080;48.818;9.526;2023-07-13T07:25:57;4.00;;;3.70;;
12038;SDS011;6080;48.818;9.526;2023-07-13T07:28:23;3.58;;;3.28;;
12038;SDS011;6080;48.818;9.526;2023-07-13T07:30:52;6.75;;;5.85;;
12038;SDS011;6080;48.818;9.526;2023-07-13T07:33:18;10.00;;;9.48;;
12038;SDS011;6080;48.818;9.526;2023-07-13T07:35:44;11.20;;;10.48;;
12038;SDS011;6080;48.818;9.526;2023-07-13T07:38:10;11.38;;;10.77;;
12038;SDS011;6080;48.818;9.526;2023-07-13T07:40:36;6.82;;;5.45;;
12038;SDS011;6080;48.818;9.526;2023-07-13T07:43:06;4.97;;;4.35;;
12038;SDS011;6080;48.818;9.526;2023-07-13T07:45:36;4.55;;;4.25;;
12038;SDS011;6080;48.818;9.526;2023-07-13T07:48:04;14.60;;;13.40;;
12038;SDS011;6080;48.818;9.526;2023-07-13T07:50:30;5.53;;;3.75;;
12038;SDS011;6080;48.818;9.526;2023-07-13T07:52:57;9.63;;;8.98;;
12038;SDS011;6080;48.818;9.526;2023-07-13T07:55:23;16.27;;;15.43;;
12038;SDS011;6080;48.818;9.526;2023-07-13T07:57:51;11.05;;;10.50;;
12038;SDS011;6080;48.818;9.526;2023-07-13T08:00:17;8.65;;;7.85;;
12038;SDS011;6080;48.818;9.526;2023-07-13T08:02:44;5.53;;;5.22;;
12038;SDS011;6080;48.818;9.526;2023-07-13T08:05:10;9.65;;;8.93;;
12038;SDS011;6080;48.818;9.526;2023-07-13T08:07:36;6.03;;;5.57;;
12038;SDS011;6080;48.818;9.526;2023-07-13T08:10:02;9.38;;;8.57;;
12038;SDS011;6080;48.818;9.526;2023-07-13T08:12:29;14.10;;;13.23;;
12038;SDS011;6080;48.818;9.526;2023-07-13T08:14:54;21.25;;;20.05;;
12038;SDS011;6080;48.818;9.526;2023-07-13T08:17:23;26.30;;;24.85;;
12038;SDS011;6080;48.818;9.526;2023-07-13T08:19:50;22.20;;;20.90;;
12038;SDS011;6080;48.818;9.526;2023-07-13T08:22:16;27.55;;;25.85;;
12038;SDS011;6080;48.818;9.526;2023-07-13T08:24:43;23.77;;;22.40;;
12038;SDS011;6080;48.818;9.526;2023-07-13T08:27:09;25.52;;;24.10;;
12038;SDS011;6080;48.818;9.526;2023-07-13T08:29:36;20.35;;;19.30;;
12038;SDS011;6080;48.818;9.526;2023-07-13T08:32:04;20.25;;;19.15;;
12038;SDS011;6080;48.818;9.526;2023-07-13T08:34:31;21.90;;;20.75;;
12038;SDS011;6080;48.818;9.526;2023-07-13T08:36:56;19.40;;;18.40;;
12038;SDS011;6080;48.818;9.526;2023-07-13T08:39:22;16.00;;;15.15;;
12038;SDS011;6080;48.818;9.526;2023-07-13T08:41:49;24.17;;;22.85;;
12038;SDS011;6080;48.818;9.526;2023-07-13T08:44:33;27.73;;;26.38;;
12038;SDS011;6080;48.818;9.526;2023-07-13T08:47:26;22.70;;;21.42;;
12038;SDS011;6080;48.818;9.526;2023-07-13T08:49:54;30.77;;;29.30;;
12038;SDS011;6080;48.818;9.526;2023-07-13T08:52:32;27.05;;;25.75;;
12038;SDS011;6080;48.818;9.526;2023-07-13T08:55:05;27.70;;;25.95;;
12038;SDS011;6080;48.818;9.526;2023-07-13T08:57:39;25.60;;;23.55;;
12038;SDS011;6080;48.818;9.526;2023-07-13T09:00:11;23.38;;;22.20;;
12038;SDS011;6080;48.818;9.526;2023-07-13T09:02:58;17.50;;;16.50;;
12038;SDS011;6080;48.818;9.526;2023-07-13T09:05:30;17.33;;;16.38;;
12038;SDS011;6080;48.818;9.526;2023-07-13T09:11:06;18.08;;;16.85;;
12038;SDS011;6080;48.818;9.526;2023-07-13T09:16:39;19.58;;;18.65;;
12038;SDS011;6080;48.818;9.526;2023-07-13T09:19:07;15.73;;;14.93;;
12038;SDS011;6080;48.818;9.526;2023-07-13T09:21:40;15.23;;;14.30;;
12038;SDS011;6080;48.818;9.526;2023-07-13T09:26:59;20.90;;;19.83;;
12038;SDS011;6080;48.818;9.526;2023-07-13T09:29:28;18.83;;;17.95;;
12038;SDS011;6080;48.818;9.526;2023-07-13T09:31:58;18.15;;;16.92;;
12038;SDS011;6080;48.818;9.526;2023-07-13T09:34:28;17.77;;;16.67;;
12038;SDS011;6080;48.818;9.526;2023-07-13T09:36:55;16.30;;;15.32;;
12038;SDS011;6080;48.818;9.526;2023-07-13T09:41:57;8.65;;;8.18;;
12038;SDS011;6080;48.818;9.526;2023-07-13T09:47:16;8.65;;;8.07;;
12038;SDS011;6080;48.818;9.526;2023-07-13T09:49:44;19.05;;;17.88;;
12038;SDS011;6080;48.818;9.526;2023-07-13T09:52:11;22.17;;;20.98;;
12038;SDS011;6080;48.818;9.526;2023-07-13T09:54:39;20.48;;;19.40;;
12038;SDS011;6080;48.818;9.526;2023-07-13T09:57:13;16.40;;;15.13;;
12038;SDS011;6080;48.818;9.526;2023-07-13T09:59:43;12.10;;;11.32;;
12038;SDS011;6080;48.818;9.526;2023-07-13T10:02:31;20.15;;;19.20;;
12038;SDS011;6080;48.818;9.526;2023-07-13T10:05:02;8.13;;;7.70;;
12038;SDS011;6080;48.818;9.526;2023-07-13T10:07:30;4.15;;;3.75;;
12038;SDS011;6080;48.818;9.526;2023-07-13T10:09:57;3.13;;;2.90;;
12038;SDS011;6080;48.818;9.526;2023-07-13T10:12:28;5.45;;;4.97;;
12038;SDS011;6080;48.818;9.526;2023-07-13T10:15:00;14.90;;;13.82;;
12038;SDS011;6080;48.818;9.526;2023-07-13T10:17:30;12.23;;;11.52;;
12038;SDS011;6080;48.818;9.526;2023-07-13T10:20:04;8.27;;;5.57;;
12038;SDS011;6080;48.818;9.526;2023-07-13T10:25:21;15.90;;;14.88;;
12038;SDS011;6080;48.818;9.526;2023-07-13T10:27:50;13.70;;;13.00;;
12038;SDS011;6080;48.818;9.526;2023-07-13T10:30:40;9.57;;;8.93;;
12038;SDS011;6080;48.818;9.526;2023-07-13T10:33:12;5.65;;;5.15;;
12038;SDS011;6080;48.818;9.526;2023-07-13T10:35:39;4.38;;;4.07;;
12038;SDS011;6080;48.818;9.526;2023-07-13T10:38:15;5.22;;;4.93;;
12038;SDS011;6080;48.818;9.526;2023-07-13T10:40:49;6.63;;;4.45;;
12038;SDS011;6080;48.818;9.526;2023-07-13T10:43:28;6.50;;;5.97;;
12038;SDS011;6080;48.818;9.526;2023-07-13T10:46:11;12.30;;;11.63;;
12038;SDS011;6080;48.818;9.526;2023-07-13T10:48:41;17.25;;;16.23;;
12038;SDS011;6080;48.818;9.526;2023-07-13T10:51:10;10.35;;;9.63;;
12038;SDS011;6080;48.818;9.526;2023-07-13T10:53:39;5.95;;;5.47;;
12038;SDS011;6080;48.818;9.526;2023-07-13T10:58:47;7.13;;;4.78;;
12038;SDS011;6080;48.818;9.526;2023-07-13T11:04:18;11.38;;;10.73;;
12038;SDS011;6080;48.818;9.526;2023-07-13T11:06:46;5.75;;;5.38;;
12038;SDS011;6080;48.818;9.526;2023-07-13T11:12:06;4.78;;;4.15;;
12038;SDS011;6080;48.818;9.526;2023-07-13T11:14:35;3.60;;;3.33;;
12038;SDS011;6080;48.818;9.526;2023-07-13T11:17:50;4.72;;;3.53;;
12038;SDS011;6080;48.818;9.526;2023-07-13T11:27:46;31.60;;;29.98;;
12038;SDS011;6080;48.818;9.526;2023-07-13T11:30:24;78.50;;;74.65;;
12038;SDS011;6080;48.818;9.526;2023-07-13T11:35:45;51.58;;;48.83;;
12038;SDS011;6080;48.818;9.526;2023-07-13T11:41:17;33.22;;;31.35;;
12038;SDS011;6080;48.818;9.526;2023-07-13T11:43:50;18.35;;;17.27;;
12038;SDS011;6080;48.818;9.526;2023-07-13T11:46:23;19.25;;;18.15;;
12038;SDS011;6080;48.818;9.526;2023-07-13T11:48:53;5.53;;;5.13;;
12038;SDS011;6080;48.818;9.526;2023-07-13T11:53:53;5.03;;;4.22;;
12038;SDS011;6080;48.818;9.526;2023-07-13T11:56:20;3.90;;;3.58;;
12038;SDS011;6080;48.818;9.526;2023-07-13T11:58:51;7.80;;;7.35;;
12038;SDS011;6080;48.818;9.526;2023-07-13T12:03:52;4.25;;;3.83;;
12038;SDS011;6080;48.818;9.526;2023-07-13T12:06:26;4.63;;;3.80;;
12038;SDS011;6080;48.818;9.526;2023-07-13T12:09:00;3.60;;;3.30;;
12038;SDS011;6080;48.818;9.526;2023-07-13T12:11:29;7.10;;;6.55;;
12038;SDS011;6080;48.818;9.526;2023-07-13T12:13:55;4.82;;;4.50;;
12038;SDS011;6080;48.818;9.526;2023-07-13T12:16:31;6.13;;;5.85;;
12038;SDS011;6080;48.818;9.526;2023-07-13T12:19:02;6.03;;;5.57;;
12038;SDS011;6080;48.818;9.526;2023-07-13T12:21:31;7.10;;;6.60;;
12038;SDS011;6080;48.818;9.526;2023-07-13T12:23:58;8.07;;;7.57;;
12038;SDS011;6080;48.818;9.526;2023-07-13T12:26:27;6.53;;;6.03;;
12038;SDS011;6080;48.818;9.526;2023-07-13T12:28:55;7.22;;;6.63;;
12038;SDS011;6080;48.818;9.526;2023-07-13T12:31:39;6.05;;;5.75;;
12038;SDS011;6080;48.818;9.526;2023-07-13T12:34:16;4.80;;;4.50;;
12038;SDS011;6080;48.818;9.526;2023-07-13T12:36:51;4.93;;;4.53;;
12038;SDS011;6080;48.818;9.526;2023-07-13T12:39:22;6.45;;;4.55;;
12038;SDS011;6080;48.818;9.526;2023-07-13T12:41:53;5.45;;;4.85;;
12038;SDS011;6080;48.818;9.526;2023-07-13T12:44:34;5.30;;;4.95;;
12038;SDS011;6080;48.818;9.526;2023-07-13T12:47:09;6.78;;;5.55;;
12038;SDS011;6080;48.818;9.526;2023-07-13T12:49:40;7.22;;;6.65;;
12038;SDS011;6080;48.818;9.526;2023-07-13T12:52:50;8.13;;;5.53;;
12038;SDS011;6080;48.818;9.526;2023-07-13T12:55:03;6.25;;;5.85;;
12038;SDS011;6080;48.818;9.526;2023-07-13T12:57:57;7.70;;;7.10;;
12038;SDS011;6080;48.818;9.526;2023-07-13T13:00:31;7.15;;;6.70;;
12038;SDS011;6080;48.818;9.526;2023-07-13T13:06:03;12.27;;;11.68;;
12038;SDS011;6080;48.818;9.526;2023-07-13T13:08:30;23.00;;;21.60;;
12038;SDS011;6080;48.818;9.526;2023-07-13T13:10:57;14.10;;;13.30;;
12038;SDS011;6080;48.818;9.526;2023-07-13T13:13:23;5.32;;;4.82;;
12038;SDS011;6080;48.818;9.526;2023-07-13T13:15:49;7.88;;;7.28;;
12038;SDS011;6080;48.818;9.526;2023-07-13T13:18:16;7.38;;;6.97;;
12038;SDS011;6080;48.818;9.526;2023-07-13T13:20:43;4.70;;;4.18;;
12038;SDS011;6080;48.818;9.526;2023-07-13T13:23:13;5.40;;;5.03;;
12038;SDS011;6080;48.818;9.526;2023-07-13T13:25:43;6.45;;;6.13;;
12038;SDS011;6080;48.818;9.526;2023-07-13T13:28:17;9.00;;;7.20;;
12038;SDS011;6080;48.818;9.526;2023-07-13T13:30:45;4.57;;;3.90;;
12038;SDS011;6080;48.818;9.526;2023-07-13T13:33:13;4.00;;;3.70;;
12038;SDS011;6080;48.818;9.526;2023-07-13T13:35:41;6.60;;;6.20;;
12038;SDS011;6080;48.818;9.526;2023-07-13T13:38:12;11.88;;;11.05;;
12038;SDS011;6080;48.818;9.526;2023-07-13T13:40:43;22.42;;;21.13;;
12038;SDS011;6080;48.818;9.526;2023-07-13T13:43:17;26.40;;;25.00;;
12038;SDS011;6080;48.818;9.526;2023-07-13T13:45:44;9.93;;;9.38;;
12038;SDS011;6080;48.818;9.526;2023-07-13T13:48:18;7.97;;;7.30;;
12038;SDS011;6080;48.818;9.526;2023-07-13T13:50:47;6.90;;;6.25;;
12038;SDS011;6080;48.818;9.526;2023-07-13T13:53:14;5.25;;;3.65;;
12038;SDS011;6080;48.818;9.526;2023-07-13T13:55:40;5.40;;;4.60;;
12038;SDS011;6080;48.818;9.526;2023-07-13T13:58:07;5.35;;;4.88;;
12038;SDS011;6080;48.818;9.526;2023-07-13T14:00:34;6.57;;;6.05;;
12038;SDS011;6080;48.818;9.526;2023-07-13T14:03:01;6.32;;;5.93;;
12038;SDS011;6080;48.818;9.526;2023-07-13T14:05:27;8.88;;;4.63;;
12038;SDS011;6080;48.818;9.526;2023-07-13T14:07:54;6.28;;;4.45;;
12038;SDS011;6080;48.818;9.526;2023-07-13T14:10:21;6.97;;;6.53;;
12038;SDS011;6080;48.818;9.526;2023-07-13T14:12:50;7.03;;;6.55;;
12038;SDS011;6080;48.818;9.526;2023-07-13T14:15:22;6.03;;;5.53;;
12038;SDS011;6080;48.818;9.526;2023-07-13T14:17:50;4.43;;;3.90;;
12038;SDS011;6080;48.818;9.526;2023-07-13T14:20:17;3.80;;;3.60;;
12038;SDS011;6080;48.818;9.526;2023-07-13T14:22:44;7.97;;;7.38;;
12038;SDS011;6080;48.818;9.526;2023-07-13T14:25:11;5.55;;;5.15;;
12038;SDS011;6080;48.818;9.526;2023-07-13T14:27:38;9.57;;;7.28;;
12038;SDS011;6080;48.818;9.526;2023-07-13T14:30:09;5.60;;;5.13;;
12038;SDS011;6080;48.818;9.526;2023-07-13T14:32:39;4.55;;;4.13;;
12038;SDS011;6080;48.818;9.526;2023-07-13T14:35:05;3.42;;;3.13;;
12038;SDS011;6080;48.818;9.526;2023-07-13T14:37:32;4.82;;;4.35;;
12038;SDS011;6080;48.818;9.526;2023-07-13T14:39:59;5.35;;;4.32;;
12038;SDS011;6080;48.818;9.526;2023-07-13T14:42:25;3.20;;;3.00;;
12038;SDS011;6080;48.818;9.526;2023-07-13T14:44:51;6.85;;;4.60;;
12038;SDS011;6080;48.818;9.526;2023-07-13T14:47:17;5.20;;;4.88;;
12038;SDS011;6080;48.818;9.526;2023-07-13T14:49:43;6.07;;;3.80;;
12038;SDS011;6080;48.818;9.526;2023-07-13T14:52:14;3.85;;;3.50;;
12038;SDS011;6080;48.818;9.526;2023-07-13T14:54:41;6.00;;;4.05;;
12038;SDS011;6080;48.818;9.526;2023-07-13T14:57:09;5.50;;;2.95;;
12038;SDS011;6080;48.818;9.526;2023-07-13T14:59:36;5.78;;;5.28;;
12038;SDS011;6080;48.818;9.526;2023-07-13T15:02:02;5.22;;;4.88;;
12038;SDS011;6080;48.818;9.526;2023-07-13T15:04:29;5.72;;;5.22;;
12038;SDS011;6080;48.818;9.526;2023-07-13T15:06:56;6.45;;;5.95;;
12038;SDS011;6080;48.818;9.526;2023-07-13T15:09:24;5.53;;;5.22;;
12038;SDS011;6080;48.818;9.526;2023-07-13T15:11:53;9.93;;;9.27;;
12038;SDS011;6080;48.818;9.526;2023-07-13T15:14:20;51.97;;;49.38;;
12038;SDS011;6080;48.818;9.526;2023-07-13T15:16:47;65.22;;;61.85;;
12038;SDS011;6080;48.818;9.526;2023-07-13T15:19:16;13.75;;;13.02;;
12038;SDS011;6080;48.818;9.526;2023-07-13T15:21:44;3.80;;;3.50;;
12038;SDS011;6080;48.818;9.526;2023-07-13T15:24:10;3.67;;;3.08;;
12038;SDS011;6080;48.818;9.526;2023-07-13T15:26:36;3.90;;;3.60;;
12038;SDS011;6080;48.818;9.526;2023-07-13T15:29:04;3.15;;;3.05;;
12038;SDS011;6080;48.818;9.526;2023-07-13T15:31:31;3.95;;;3.75;;
12038;SDS011;6080;48.818;9.526;2023-07-13T15:33:58;4.07;;;3.85;;
12038;SDS011;6080;48.818;9.526;2023-07-13T15:36:25;3.88;;;3.55;;
12038;SDS011;6080;48.818;9.526;2023-07-13T15:38:53;7.03;;;6.60;;
12038;SDS011;6080;48.818;9.526;2023-07-13T15:41:20;51.35;;;48.92;;
12038;SDS011;6080;48.818;9.526;2023-07-13T15:43:52;93.85;;;89.28;;
12038;SDS011;6080;48.818;9.526;2023-07-13T15:46:27;22.65;;;21.45;;
12038;SDS011;6080;48.818;9.526;2023-07-13T15:48:54;5.25;;;3.70;;
12038;SDS011;6080;48.818;9.526;2023-07-13T15:51:26;3.92;;;3.63;;
12038;SDS011;6080;48.818;9.526;2023-07-13T15:53:54;3.90;;;3.60;;
12038;SDS011;6080;48.818;9.526;2023-07-13T15:56:23;23.83;;;22.48;;
12038;SDS011;6080;48.818;9.526;2023-07-13T15:58:51;77.95;;;73.53;;
12038;SDS011;6080;48.818;9.526;2023-07-13T16:01:17;47.15;;;44.67;;
12038;SDS011;6080;48.818;9.526;2023-07-13T16:03:44;26.67;;;25.13;;
12038;SDS011;6080;48.818;9.526;2023-07-13T16:06:22;14.98;;;14.02;;
12038;SDS011;6080;48.818;9.526;2023-07-13T16:08:50;14.27;;;13.32;;
12038;SDS011;6080;48.818;9.526;2023-07-13T16:11:22;48.92;;;46.38;;
12038;SDS011;6080;48.818;9.526;2023-07-13T16:13:58;81.88;;;77.85;;
12038;SDS011;6080;48.818;9.526;2023-07-13T16:16:26;97.82;;;93.03;;
12038;SDS011;6080;48.818;9.526;2023-07-13T16:18:55;81.97;;;78.10;;
12038;SDS011;6080;48.818;9.526;2023-07-13T16:21:29;32.38;;;30.55;;
12038;SDS011;6080;48.818;9.526;2023-07-13T16:23:58;4.20;;;4.00;;
12038;SDS011;6080;48.818;9.526;2023-07-13T16:26:29;3.53;;;3.22;;
12038;SDS011;6080;48.818;9.526;2023-07-13T16:29:18;3.33;;;3.22;;
12038;SDS011;6080;48.818;9.526;2023-07-13T16:32:02;4.43;;;4.03;;
12038;SDS011;6080;48.818;9.526;2023-07-13T16:34:34;6.57;;;6.07;;
12038;SDS011;6080;48.818;9.526;2023-07-13T16:37:01;8.68;;;7.97;;
12038;SDS011;6080;48.818;9.526;2023-07-13T16:39:30;8.00;;;7.60;;
12038;SDS011;6080;48.818;9.526;2023-07-13T16:41:57;8.82;;;8.25;;
12038;SDS011;6080;48.818;9.526;2023-07-13T16:44:25;7.93;;;7.20;;
12038;SDS011;6080;48.818;9.526;2023-07-13T16:46:53;7.97;;;7.38;;
12038;SDS011;6080;48.818;9.526;2023-07-13T16:51:49;7.47;;;7.07;;
12038;SDS011;6080;48.818;9.526;2023-07-13T16:54:16;4.72;;;4.32;;
12038;SDS011;6080;48.818;9.526;2023-07-13T16:56:44;7.65;;;4.43;;
12038;SDS011;6080;48.818;9.526;2023-07-13T16:59:18;6.25;;;5.43;;
12038;SDS011;6080;48.818;9.526;2023-07-13T17:01:45;5.75;;;5.32;;
12038;SDS011;6080;48.818;9.526;2023-07-13T17:04:15;5.35;;;4.95;;
12038;SDS011;6080;48.818;9.526;2023-07-13T17:06:49;5.65;;;5.15;;
12038;SDS011;6080;48.818;9.526;2023-07-13T17:09:18;5.15;;;4.85;;
12038;SDS011;6080;48.818;9.526;2023-07-13T17:11:44;6.03;;;5.70;;
12038;SDS011;6080;48.818;9.526;2023-07-13T17:14:14;7.57;;;5.70;;
12038;SDS011;6080;48.818;9.526;2023-07-13T17:16:47;28.02;;;24.40;;
12038;SDS011;6080;48.818;9.526;2023-07-13T17:19:15;28.15;;;25.25;;
12038;SDS011;6080;48.818;9.526;2023-07-13T17:21:43;11.60;;;10.80;;
12038;SDS011;6080;48.818;9.526;2023-07-13T17:24:16;10.35;;;9.85;;
12038;SDS011;6080;48.818;9.526;2023-07-13T17:27:01;13.30;;;12.45;;
12038;SDS011;6080;48.818;9.526;2023-07-13T17:29:27;12.52;;;11.90;;
12038;SDS011;6080;48.818;9.526;2023-07-13T17:31:53;11.55;;;10.95;;
12038;SDS011;6080;48.818;9.526;2023-07-13T17:34:18;11.27;;;10.57;;
12038;SDS011;6080;48.818;9.526;2023-07-13T17:36:47;12.68;;;11.88;;
12038;SDS011;6080;48.818;9.526;2023-07-13T17:39:19;11.73;;;10.88;;
12038;SDS011;6080;48.818;9.526;2023-07-13T17:41:47;16.60;;;15.35;;
12038;SDS011;6080;48.818;9.526;2023-07-13T17:44:15;17.15;;;15.77;;
12038;SDS011;6080;48.818;9.526;2023-07-13T17:46:45;16.65;;;15.45;;
12038;SDS011;6080;48.818;9.526;2023-07-13T17:49:15;12.77;;;11.98;;
12038;SDS011;6080;48.818;9.526;2023-07-13T17:51:45;10.02;;;9.43;;
12038;SDS011;6080;48.818;9.526;2023-07-13T17:54:15;10.57;;;9.95;;
12038;SDS011;6080;48.818;9.526;2023-07-13T17:56:42;10.68;;;10.18;;
12038;SDS011;6080;48.818;9.526;2023-07-13T17:59:08;11.20;;;10.60;;
12038;SDS011;6080;48.818;9.526;2023-07-13T18:01:34;10.30;;;9.73;;
12038;SDS011;6080;48.818;9.526;2023-07-13T18:04:05;8.32;;;7.70;;
12038;SDS011;6080;48.818;9.526;2023-07-13T18:06:34;6.90;;;6.38;;
12038;SDS011;6080;48.818;9.526;2023-07-13T18:09:15;9.20;;;8.65;;
12038;SDS011;6080;48.818;9.526;2023-07-13T18:11:46;26.52;;;24.13;;
12038;SDS011;6080;48.818;9.526;2023-07-13T18:14:12;16.67;;;15.35;;
12038;SDS011;6080;48.818;9.526;2023-07-13T18:16:38;22.30;;;20.27;;
12038;SDS011;6080;48.818;9.526;2023-07-13T18:19:06;25.67;;;23.02;;
12038;SDS011;6080;48.818;9.526;2023-07-13T18:21:50;5.78;;;5.38;;
12038;SDS011;6080;48.818;9.526;2023-07-13T18:24:17;4.45;;;4.25;;
12038;SDS011;6080;48.818;9.526;2023-07-13T18:26:43;7.18;;;6.20;;
12038;SDS011;6080;48.818;9.526;2023-07-13T18:29:09;7.13;;;6.63;;
12038;SDS011;6080;48.818;9.526;2023-07-13T18:31:35;7.32;;;6.78;;
12038;SDS011;6080;48.818;9.526;2023-07-13T18:34:01;9.75;;;9.13;;
12038;SDS011;6080;48.818;9.526;2023-07-13T18:36:28;8.68;;;7.97;;
12038;SDS011;6080;48.818;9.526;2023-07-13T18:38:55;15.75;;;14.82;;
12038;SDS011;6080;48.818;9.526;2023-07-13T18:41:21;18.40;;;17.30;;
12038;SDS011;6080;48.818;9.526;2023-07-13T18:43:50;22.08;;;20.85;;
12038;SDS011;6080;48.818;9.526;2023-07-13T18:46:24;29.38;;;27.67;;